Richmond, Missouri
Current Conditions -  °F | °C
As of 4:55 AM on Friday 21 Nov 2014 (Local Time) from KGPH Reporting Station
Clear Clear  
Wind Chill: 19°   Ceiling: Unl
Heat Index: 25°   Visibility: 10mi
Dew Point: 18°   Wind: 5mph
Humidity: 74%   Direction: 110°ESE
Pressure: 30.27"   Gusts: NA
Location:  39.28°N, 93.98°W
Report Text: KGPH 211055Z AUTO 11004KT 10SM CLR M04/M08 A3027 RMK AO2
Loading
Personal Weather Stations






























Interactive Weather Map New forecast layout! Learn more

10-Day Weather Forecast

Advertisements
Track Severe Weather on mobile